createdAt,value
2022-10-11T00:04:13.159Z,99.90
2022-10-11T00:09:16.189Z,99.90
2022-10-11T00:14:20.302Z,99.90
2022-10-11T00:19:23.176Z,99.90
2022-10-11T00:24:25.987Z,99.90
2022-10-11T00:29:30.119Z,99.90
2022-10-11T00:34:33.264Z,99.90
2022-10-11T00:39:36.135Z,99.90
2022-10-11T00:44:44.165Z,99.90
2022-10-11T00:49:50.621Z,99.90
2022-10-11T00:54:53.383Z,99.90
2022-10-11T00:59:57.590Z,99.90
2022-10-11T01:05:25.093Z,99.90
2022-10-11T01:10:23.443Z,99.90
2022-10-11T01:15:34.243Z,99.90
2022-10-11T01:20:46.531Z,99.90
2022-10-11T01:26:03.669Z,99.90
2022-10-11T01:31:14.737Z,99.90
2022-10-11T01:36:28.648Z,99.90
2022-10-11T01:41:36.378Z,99.90
2022-10-11T01:46:41.150Z,99.90
2022-10-11T01:51:47.610Z,99.90
2022-10-11T01:57:14.217Z,99.90
2022-10-11T02:02:32.712Z,99.90
2022-10-11T02:07:43.727Z,99.90
2022-10-11T02:12:52.672Z,99.90
2022-10-11T02:18:00.203Z,99.90
2022-10-11T02:23:09.848Z,99.90
2022-10-11T02:28:16.286Z,99.90
2022-10-11T02:33:25.040Z,99.90
2022-10-11T02:38:33.767Z,99.90
2022-10-11T02:43:40.068Z,99.90
2022-10-11T02:48:44.164Z,99.90
2022-10-11T02:53:46.917Z,99.90
2022-10-11T02:58:49.805Z,99.90
2022-10-11T03:03:53.946Z,99.90
2022-10-11T03:08:56.791Z,99.90
2022-10-11T03:13:59.650Z,99.90
2022-10-11T03:19:03.841Z,99.90
2022-10-11T03:24:07.232Z,99.90
2022-10-11T03:29:10.135Z,99.90
2022-10-11T03:34:14.266Z,99.90
2022-10-11T03:39:17.399Z,99.90
2022-10-11T03:44:20.409Z,99.90
2022-10-11T03:49:24.759Z,99.90
2022-10-11T03:54:27.702Z,99.90
2022-10-11T03:59:30.515Z,99.90
2022-10-11T04:04:34.726Z,99.90
2022-10-11T04:09:37.596Z,99.90
2022-10-11T04:14:40.478Z,99.90
2022-10-11T04:19:44.607Z,99.90
2022-10-11T04:24:47.380Z,99.90
2022-10-11T04:29:50.124Z,99.90
2022-10-11T04:34:54.320Z,99.90
2022-10-11T04:39:57.060Z,99.90
2022-10-11T04:44:59.822Z,99.90
2022-10-11T04:50:04.584Z,1.00
2022-10-11T04:55:08.063Z,1.00
2022-10-11T05:00:12.350Z,1.00
2022-10-11T05:05:17.597Z,1.00
2022-10-11T05:10:20.367Z,1.00
2022-10-11T05:15:23.128Z,1.00
2022-10-11T05:20:27.819Z,1.00
2022-10-11T05:25:30.607Z,1.00
2022-10-11T05:30:33.406Z,1.00
2022-10-11T05:35:37.545Z,1.00
2022-10-11T05:40:41.027Z,1.00
2022-10-11T05:45:44.651Z,1.00
2022-10-11T05:50:48.906Z,61.20
2022-10-11T05:55:51.675Z,99.90
2022-10-11T06:00:54.715Z,99.90
2022-10-11T06:06:03.351Z,99.90
2022-10-11T06:11:12.269Z,99.90
2022-10-11T06:16:15.310Z,99.90
2022-10-11T06:21:19.415Z,99.90
2022-10-11T06:26:22.236Z,99.90
2022-10-11T06:31:25.406Z,99.90
2022-10-11T06:36:29.850Z,99.90
2022-10-11T06:41:32.637Z,99.90
2022-10-11T06:46:35.418Z,99.90
2022-10-11T06:51:39.612Z,75.40
2022-10-11T06:56:42.362Z,25.00
2022-10-11T07:01:45.163Z,1.00
2022-10-11T07:06:49.226Z,1.00
2022-10-11T07:11:51.984Z,1.00
2022-10-11T07:16:54.754Z,1.00
2022-10-11T07:21:58.814Z,1.00
2022-10-11T07:27:01.696Z,1.00
2022-10-11T07:32:04.700Z,1.00
2022-10-11T07:37:08.932Z,1.00
2022-10-11T07:42:11.686Z,1.00
2022-10-11T07:47:14.503Z,1.00
2022-10-11T07:52:18.638Z,1.00
2022-10-11T07:57:21.399Z,1.00
2022-10-11T08:02:24.164Z,1.00
2022-10-11T08:07:29.672Z,99.90
2022-10-11T08:12:32.843Z,99.90
2022-10-11T08:17:35.824Z,99.90
2022-10-11T08:22:40.294Z,99.90
2022-10-11T08:27:43.047Z,99.90
2022-10-11T08:32:45.826Z,99.90
2022-10-11T08:37:49.904Z,99.90
2022-10-11T08:42:59.005Z,99.90
2022-10-11T08:48:13.657Z,99.90
2022-10-11T08:53:25.377Z,99.90
2022-10-11T08:58:39.013Z,99.90
2022-10-11T09:03:44.020Z,99.90
2022-10-11T09:09:01.205Z,99.90
2022-10-11T09:14:30.572Z,99.90
2022-10-11T09:19:53.726Z,99.90
2022-10-11T09:25:08.763Z,99.90
2022-10-11T09:30:16.175Z,99.90
2022-10-11T09:35:20.766Z,99.90
2022-10-11T09:40:35.890Z,99.90
2022-10-11T09:45:38.781Z,99.90
2022-10-11T09:50:41.604Z,99.90
2022-10-11T09:55:52.179Z,99.90
2022-10-11T10:01:03.937Z,99.90
2022-10-11T10:06:16.587Z,99.90
2022-10-11T10:11:21.077Z,99.90
2022-10-11T10:16:26.722Z,99.90
2022-10-11T10:21:32.453Z,99.90
2022-10-11T10:26:36.601Z,99.90
2022-10-11T10:32:08.823Z,99.90
2022-10-11T10:37:12.719Z,99.90
2022-10-11T10:42:19.166Z,99.90
2022-10-11T10:47:43.810Z,99.90
2022-10-11T10:52:58.045Z,99.90
2022-10-11T10:58:09.648Z,99.90
2022-10-11T11:03:22.904Z,99.90
2022-10-11T11:08:36.681Z,99.90
2022-10-11T11:13:49.677Z,99.90
2022-10-11T11:18:59.084Z,99.90
2022-10-11T11:24:12.108Z,99.90
2022-10-11T11:29:29.539Z,99.90
2022-10-11T11:34:37.980Z,99.90
2022-10-11T11:39:44.929Z,99.90
2022-10-11T11:44:50.878Z,99.90
2022-10-11T11:49:59.227Z,99.90
2022-10-11T11:55:11.507Z,99.90
2022-10-11T12:00:20.110Z,99.90
2022-10-11T12:05:27.496Z,99.90
2022-10-11T12:10:37.059Z,99.90
2022-10-11T12:15:58.946Z,99.90
2022-10-11T12:21:05.800Z,99.90
2022-10-11T12:26:33.237Z,99.90
2022-10-11T12:31:42.419Z,99.90
2022-10-11T12:36:49.778Z,99.90
2022-10-11T12:42:06.137Z,99.90
2022-10-11T12:47:36.833Z,99.90
2022-10-11T12:52:51.459Z,99.90
2022-10-11T12:58:24.044Z,99.90
2022-10-11T13:03:32.891Z,99.90
2022-10-11T13:08:38.541Z,99.90
2022-10-11T13:13:45.909Z,99.90
2022-10-11T13:18:56.131Z,99.90
2022-10-11T13:24:00.896Z,99.90
2022-10-11T13:29:03.776Z,99.90
2022-10-11T13:34:07.935Z,99.90
2022-10-11T13:39:30.135Z,99.90
2022-10-11T13:44:35.398Z,99.90
2022-10-11T13:49:40.171Z,99.90
2022-10-11T13:54:57.412Z,99.90
2022-10-11T14:00:02.377Z,99.90
2022-10-11T14:05:07.245Z,99.90
2022-10-11T14:10:21.049Z,99.90
2022-10-11T14:15:27.405Z,99.90
2022-10-11T14:20:40.111Z,99.90
2022-10-11T14:25:42.943Z,99.90
2022-10-11T14:30:45.758Z,99.90
2022-10-11T14:35:49.898Z,99.90
2022-10-11T14:40:52.774Z,99.90
2022-10-11T14:45:55.704Z,99.90
2022-10-11T14:51:02.095Z,99.90
2022-10-11T14:56:05.173Z,99.90
2022-10-11T15:01:08.325Z,99.90
2022-10-11T15:06:18.157Z,99.90
2022-10-11T15:11:22.423Z,99.90
2022-10-11T15:16:25.296Z,99.90
2022-10-11T15:21:30.970Z,99.90
2022-10-11T15:26:33.965Z,99.90
2022-10-11T15:31:36.881Z,99.90
2022-10-11T15:36:41.011Z,99.90
2022-10-11T15:41:43.771Z,99.90
2022-10-11T15:46:46.569Z,99.90
2022-10-11T15:51:50.681Z,99.90
2022-10-11T15:56:53.447Z,99.90
2022-10-11T16:01:56.559Z,99.90
2022-10-11T16:07:00.798Z,99.90
2022-10-11T16:12:03.564Z,99.90
2022-10-11T16:17:06.350Z,99.90
2022-10-11T16:22:10.449Z,1.00
2022-10-11T16:27:16.566Z,1.00
2022-10-11T16:32:22.034Z,1.00
2022-10-11T16:37:26.119Z,80.30
2022-10-11T16:42:29.064Z,99.90
2022-10-11T16:47:32.186Z,1.00
2022-10-11T16:52:36.300Z,99.90
2022-10-11T16:57:39.379Z,1.00
2022-10-11T17:02:42.136Z,1.00
2022-10-11T17:07:46.240Z,99.90
2022-10-11T17:12:50.236Z,1.00
2022-10-11T17:17:56.444Z,1.00
2022-10-11T17:23:00.593Z,99.90
2022-10-11T17:28:03.317Z,99.90
2022-10-11T17:33:06.084Z,1.00
2022-10-11T17:38:10.170Z,1.00
2022-10-11T17:43:12.959Z,1.00
2022-10-11T17:48:15.712Z,1.00
2022-10-11T17:53:20.144Z,1.00
2022-10-11T17:58:22.943Z,1.00
2022-10-11T18:03:25.891Z,94.70
2022-10-11T18:08:29.923Z,1.00
2022-10-11T18:13:32.637Z,1.00
2022-10-11T18:18:36.330Z,1.00
2022-10-11T18:23:40.566Z,1.00
2022-10-11T18:28:43.771Z,1.00
2022-10-11T18:33:47.233Z,1.00
2022-10-11T18:38:55.040Z,1.00
2022-10-11T18:44:00.013Z,99.90
2022-10-11T18:49:02.969Z,1.00
2022-10-11T18:54:09.006Z,1.00
2022-10-11T18:59:12.112Z,99.90
2022-10-11T19:04:16.740Z,99.90
2022-10-11T19:09:23.739Z,99.90
2022-10-11T19:14:30.087Z,1.00
2022-10-11T19:19:33.706Z,1.00
2022-10-11T19:24:37.862Z,1.00
2022-10-11T19:29:40.717Z,1.00
2022-10-11T19:34:43.541Z,1.00
2022-10-11T19:39:48.387Z,1.00
2022-10-11T19:44:51.152Z,1.00
2022-10-11T19:49:54.144Z,1.00
2022-10-11T19:54:58.265Z,1.00
2022-10-11T20:00:01.027Z,1.00
2022-10-11T20:05:04.094Z,1.00
2022-10-11T20:10:08.834Z,1.00
2022-10-11T20:15:12.055Z,1.00
2022-10-11T20:20:15.202Z,1.00
2022-10-11T20:25:19.285Z,1.00
2022-10-11T20:30:22.085Z,1.00
2022-10-11T20:35:25.159Z,1.00
2022-10-11T20:40:29.249Z,1.00
2022-10-11T20:45:32.108Z,1.00
2022-10-11T20:50:34.928Z,1.00
2022-10-11T20:55:39.016Z,1.00
2022-10-11T21:00:41.867Z,1.00
2022-10-11T21:05:44.791Z,1.00
2022-10-11T21:10:53.853Z,1.00
2022-10-11T21:15:56.901Z,1.00
2022-10-11T21:21:06.581Z,10.70
2022-10-11T21:26:13.940Z,47.50
2022-10-11T21:31:18.654Z,92.80
2022-10-11T21:36:23.221Z,99.90
2022-10-11T21:41:30.034Z,99.90
2022-10-11T21:47:05.944Z,99.90
2022-10-11T21:51:57.017Z,99.90
2022-10-11T21:57:01.190Z,99.90
2022-10-11T22:02:03.978Z,99.90
2022-10-11T22:07:06.908Z,99.90
2022-10-11T22:12:10.999Z,99.90
2022-10-11T22:17:13.880Z,99.90
2022-10-11T22:22:17.023Z,99.90
2022-10-11T22:27:21.149Z,99.90
2022-10-11T22:32:23.891Z,99.90
2022-10-11T22:37:26.701Z,99.90
2022-10-11T22:42:31.451Z,99.90
2022-10-11T22:47:34.401Z,99.90
2022-10-11T22:52:37.637Z,99.90
2022-10-11T22:57:41.739Z,99.90
2022-10-11T23:02:44.530Z,99.90
2022-10-11T23:07:47.631Z,99.90
2022-10-11T23:12:51.710Z,99.90
2022-10-11T23:17:54.440Z,99.90
2022-10-11T23:22:57.188Z,99.90
2022-10-11T23:28:02.161Z,99.90
2022-10-11T23:33:04.982Z,99.90
2022-10-11T23:38:07.803Z,99.90
2022-10-11T23:43:11.884Z,99.90
2022-10-11T23:48:14.601Z,99.90
2022-10-11T23:53:17.353Z,99.90
2022-10-11T23:58:21.468Z,99.90
